METAR Data
IDs: Format: Raw Decoded Include TAF

Data at: 0546 UTC 18 Oct 2018

METAR for:KI69 (Batavia/Clermont Cnt, OH, US)
Text:KI69 180536Z AUTO 00000KT 10SM CLR 05/00 A3048 RMK AO2 T00500003
Temperature: 5.0°C ( 41°F)
Dewpoint: 0.3°C ( 33°F) [RH = 72%]
Pressure (altimeter):30.48 inches Hg (1032.3 mb)
Winds:calm
Visibility:10 or more sm (16+ km)
Ceiling:at least 12,000 feet AGL
Clouds:sky clear below 12,000 feet AGL
QC Flag:automated observation with no human augmentation